Braives, Belgium
Current Conditions -  °F | °C
As of 5:20 PM on Wednesday 22 Oct 2014 (Local Time) from EBLG Reporting Station
Broken Clouds Broken Clouds  
Wind Chill: 44°   Ceiling: 2800
Heat Index: 48°   Visibility: 6mi
Dew Point: 45°   Wind: 10mph
Humidity: 87%   Direction: 300°WNW
Pressure: 30.15"   Gusts: NA
Location:  50.62°N, 5.13°E
Report Text: EBLG 221520Z 30009KT 9999 FEW015TCU BKN028 09/07 Q1021 NOSIG
Loading
Personal Weather Stations






























Interactive Weather Map
Tropical Storm Tracking
New forecast layout! Learn more

10-Day Weather Forecast

Advertisements
Track Severe Weather on mobile